sensor_id;sensor_type;location;lat;lon;timestamp;P1;durP1;ratioP1;P2;durP2;ratioP2
81841;SDS011;71284;50.918;7.092;2023-07-30T00:00:36;7.57;;;4.20;;
81841;SDS011;71284;50.918;7.092;2023-07-30T00:03:02;3.47;;;3.27;;
81841;SDS011;71284;50.918;7.092;2023-07-30T00:05:29;8.73;;;3.03;;
81841;SDS011;71284;50.918;7.092;2023-07-30T00:07:55;3.40;;;3.17;;
81841;SDS011;71284;50.918;7.092;2023-07-30T00:10:22;3.20;;;2.90;;
81841;SDS011;71284;50.918;7.092;2023-07-30T00:12:48;6.57;;;3.67;;
81841;SDS011;71284;50.918;7.092;2023-07-30T00:15:15;3.33;;;3.03;;
81841;SDS011;71284;50.918;7.092;2023-07-30T00:17:42;16.10;;;3.37;;
81841;SDS011;71284;50.918;7.092;2023-07-30T00:20:08;4.60;;;3.03;;
81841;SDS011;71284;50.918;7.092;2023-07-30T00:22:35;8.57;;;3.53;;
81841;SDS011;71284;50.918;7.092;2023-07-30T00:25:01;4.53;;;4.00;;
81841;SDS011;71284;50.918;7.092;2023-07-30T00:27:28;5.23;;;3.10;;
81841;SDS011;71284;50.918;7.092;2023-07-30T00:29:55;3.33;;;3.00;;
81841;SDS011;71284;50.918;7.092;2023-07-30T00:32:21;6.30;;;2.90;;
81841;SDS011;71284;50.918;7.092;2023-07-30T00:34:48;6.70;;;2.60;;
81841;SDS011;71284;50.918;7.092;2023-07-30T00:37:14;4.60;;;3.20;;
81841;SDS011;71284;50.918;7.092;2023-07-30T00:39:41;3.67;;;3.37;;
81841;SDS011;71284;50.918;7.092;2023-07-30T00:42:08;4.27;;;2.60;;
81841;SDS011;71284;50.918;7.092;2023-07-30T00:44:34;3.70;;;3.10;;
81841;SDS011;71284;50.918;7.092;2023-07-30T00:47:01;4.00;;;2.40;;
81841;SDS011;71284;50.918;7.092;2023-07-30T00:49:27;5.53;;;3.47;;
81841;SDS011;71284;50.918;7.092;2023-07-30T00:51:54;6.77;;;3.00;;
81841;SDS011;71284;50.918;7.092;2023-07-30T00:54:20;3.10;;;2.80;;
81841;SDS011;71284;50.918;7.092;2023-07-30T00:56:49;2.73;;;2.47;;
81841;SDS011;71284;50.918;7.092;2023-07-30T00:59:14;4.60;;;2.70;;
81841;SDS011;71284;50.918;7.092;2023-07-30T01:01:41;7.97;;;3.37;;
81841;SDS011;71284;50.918;7.092;2023-07-30T01:04:08;12.03;;;2.90;;
81841;SDS011;71284;50.918;7.092;2023-07-30T01:06:34;6.63;;;2.90;;
81841;SDS011;71284;50.918;7.092;2023-07-30T01:09:01;5.63;;;2.33;;
81841;SDS011;71284;50.918;7.092;2023-07-30T01:11:27;10.30;;;3.40;;
81841;SDS011;71284;50.918;7.092;2023-07-30T01:13:54;9.00;;;2.37;;
81841;SDS011;71284;50.918;7.092;2023-07-30T01:16:21;10.37;;;3.27;;
81841;SDS011;71284;50.918;7.092;2023-07-30T01:18:47;7.73;;;3.10;;
81841;SDS011;71284;50.918;7.092;2023-07-30T01:21:14;2.60;;;2.27;;
81841;SDS011;71284;50.918;7.092;2023-07-30T01:23:40;11.73;;;3.43;;
81841;SDS011;71284;50.918;7.092;2023-07-30T01:26:08;3.63;;;2.13;;
81841;SDS011;71284;50.918;7.092;2023-07-30T01:28:36;2.63;;;2.43;;
81841;SDS011;71284;50.918;7.092;2023-07-30T01:31:01;2.77;;;2.57;;
81841;SDS011;71284;50.918;7.092;2023-07-30T01:33:28;2.70;;;2.50;;
81841;SDS011;71284;50.918;7.092;2023-07-30T01:35:55;8.23;;;2.77;;
81841;SDS011;71284;50.918;7.092;2023-07-30T01:38:21;6.27;;;2.67;;
81841;SDS011;71284;50.918;7.092;2023-07-30T01:40:47;2.63;;;2.43;;
81841;SDS011;71284;50.918;7.092;2023-07-30T01:43:14;6.90;;;2.87;;
81841;SDS011;71284;50.918;7.092;2023-07-30T01:45:40;3.47;;;3.17;;
81841;SDS011;71284;50.918;7.092;2023-07-30T01:48:07;3.73;;;2.83;;
81841;SDS011;71284;50.918;7.092;2023-07-30T01:50:34;10.37;;;2.90;;
81841;SDS011;71284;50.918;7.092;2023-07-30T01:53:00;8.33;;;2.60;;
81841;SDS011;71284;50.918;7.092;2023-07-30T01:55:27;4.90;;;3.50;;
81841;SDS011;71284;50.918;7.092;2023-07-30T01:57:53;11.47;;;2.57;;
81841;SDS011;71284;50.918;7.092;2023-07-30T02:00:20;4.50;;;2.80;;
81841;SDS011;71284;50.918;7.092;2023-07-30T02:02:47;11.83;;;2.87;;
81841;SDS011;71284;50.918;7.092;2023-07-30T02:05:13;4.40;;;2.63;;
81841;SDS011;71284;50.918;7.092;2023-07-30T02:07:40;3.10;;;2.80;;
81841;SDS011;71284;50.918;7.092;2023-07-30T02:10:06;2.57;;;2.37;;
81841;SDS011;71284;50.918;7.092;2023-07-30T02:12:33;7.40;;;2.53;;
81841;SDS011;71284;50.918;7.092;2023-07-30T02:15:00;6.83;;;2.87;;
81841;SDS011;71284;50.918;7.092;2023-07-30T02:17:26;3.73;;;3.27;;
81841;SDS011;71284;50.918;7.092;2023-07-30T02:19:53;3.63;;;3.30;;
81841;SDS011;71284;50.918;7.092;2023-07-30T02:22:19;7.10;;;2.73;;
81841;SDS011;71284;50.918;7.092;2023-07-30T02:24:46;5.27;;;3.47;;
81841;SDS011;71284;50.918;7.092;2023-07-30T02:27:13;7.90;;;3.23;;
81841;SDS011;71284;50.918;7.092;2023-07-30T02:29:39;6.93;;;3.43;;
81841;SDS011;71284;50.918;7.092;2023-07-30T02:32:06;18.97;;;3.10;;
81841;SDS011;71284;50.918;7.092;2023-07-30T02:34:33;12.13;;;3.23;;
81841;SDS011;71284;50.918;7.092;2023-07-30T02:36:59;6.30;;;2.97;;
81841;SDS011;71284;50.918;7.092;2023-07-30T02:39:26;5.80;;;2.83;;
81841;SDS011;71284;50.918;7.092;2023-07-30T02:41:53;7.83;;;3.40;;
81841;SDS011;71284;50.918;7.092;2023-07-30T02:44:19;5.30;;;2.80;;
81841;SDS011;71284;50.918;7.092;2023-07-30T02:46:46;6.07;;;3.30;;
81841;SDS011;71284;50.918;7.092;2023-07-30T02:49:12;3.43;;;2.80;;
81841;SDS011;71284;50.918;7.092;2023-07-30T02:51:39;5.77;;;3.10;;
81841;SDS011;71284;50.918;7.092;2023-07-30T02:54:08;11.33;;;3.20;;
81841;SDS011;71284;50.918;7.092;2023-07-30T02:56:32;3.73;;;2.57;;
81841;SDS011;71284;50.918;7.092;2023-07-30T02:58:59;8.53;;;3.60;;
81841;SDS011;71284;50.918;7.092;2023-07-30T03:01:25;6.57;;;2.60;;
81841;SDS011;71284;50.918;7.092;2023-07-30T03:03:52;8.00;;;3.00;;
81841;SDS011;71284;50.918;7.092;2023-07-30T03:06:18;16.07;;;2.50;;
81841;SDS011;71284;50.918;7.092;2023-07-30T03:08:45;2.77;;;2.57;;
81841;SDS011;71284;50.918;7.092;2023-07-30T03:11:12;9.30;;;2.73;;
81841;SDS011;71284;50.918;7.092;2023-07-30T03:13:38;3.93;;;2.90;;
81841;SDS011;71284;50.918;7.092;2023-07-30T03:16:05;7.17;;;3.27;;
81841;SDS011;71284;50.918;7.092;2023-07-30T03:18:31;2.77;;;2.50;;
81841;SDS011;71284;50.918;7.092;2023-07-30T03:20:59;12.20;;;3.13;;
81841;SDS011;71284;50.918;7.092;2023-07-30T03:23:26;4.83;;;3.23;;
81841;SDS011;71284;50.918;7.092;2023-07-30T03:25:52;9.10;;;3.60;;
81841;SDS011;71284;50.918;7.092;2023-07-30T03:28:19;3.17;;;2.87;;
81841;SDS011;71284;50.918;7.092;2023-07-30T03:30:45;7.93;;;3.70;;
81841;SDS011;71284;50.918;7.092;2023-07-30T03:33:12;2.70;;;2.60;;
81841;SDS011;71284;50.918;7.092;2023-07-30T03:35:38;7.50;;;2.70;;
81841;SDS011;71284;50.918;7.092;2023-07-30T03:38:05;7.40;;;2.70;;
81841;SDS011;71284;50.918;7.092;2023-07-30T03:40:32;11.30;;;2.90;;
81841;SDS011;71284;50.918;7.092;2023-07-30T03:42:58;3.10;;;2.80;;
81841;SDS011;71284;50.918;7.092;2023-07-30T03:45:25;5.80;;;2.63;;
81841;SDS011;71284;50.918;7.092;2023-07-30T03:47:51;10.73;;;2.40;;
81841;SDS011;71284;50.918;7.092;2023-07-30T03:50:18;3.73;;;3.47;;
81841;SDS011;71284;50.918;7.092;2023-07-30T03:52:44;6.93;;;2.93;;
81841;SDS011;71284;50.918;7.092;2023-07-30T03:55:11;13.13;;;3.00;;
81841;SDS011;71284;50.918;7.092;2023-07-30T03:57:38;3.00;;;2.50;;
81841;SDS011;71284;50.918;7.092;2023-07-30T04:00:05;12.73;;;3.47;;
81841;SDS011;71284;50.918;7.092;2023-07-30T04:02:32;4.97;;;3.07;;
81841;SDS011;71284;50.918;7.092;2023-07-30T04:04:58;3.07;;;2.77;;
81841;SDS011;71284;50.918;7.092;2023-07-30T04:07:25;4.47;;;2.83;;
81841;SDS011;71284;50.918;7.092;2023-07-30T04:09:52;2.63;;;2.43;;
81841;SDS011;71284;50.918;7.092;2023-07-30T04:12:18;3.77;;;3.20;;
81841;SDS011;71284;50.918;7.092;2023-07-30T04:14:45;3.70;;;2.77;;
81841;SDS011;71284;50.918;7.092;2023-07-30T04:17:11;3.43;;;3.13;;
81841;SDS011;71284;50.918;7.092;2023-07-30T04:19:38;4.20;;;3.03;;
81841;SDS011;71284;50.918;7.092;2023-07-30T04:22:05;5.03;;;2.87;;
81841;SDS011;71284;50.918;7.092;2023-07-30T04:24:31;6.63;;;3.70;;
81841;SDS011;71284;50.918;7.092;2023-07-30T04:26:58;7.63;;;2.50;;
81841;SDS011;71284;50.918;7.092;2023-07-30T04:29:24;6.80;;;3.10;;
81841;SDS011;71284;50.918;7.092;2023-07-30T04:31:51;5.57;;;3.03;;
81841;SDS011;71284;50.918;7.092;2023-07-30T04:34:17;6.40;;;3.30;;
81841;SDS011;71284;50.918;7.092;2023-07-30T04:36:44;3.27;;;2.77;;
81841;SDS011;71284;50.918;7.092;2023-07-30T04:39:11;12.50;;;3.33;;
81841;SDS011;71284;50.918;7.092;2023-07-30T04:41:37;12.10;;;2.87;;
81841;SDS011;71284;50.918;7.092;2023-07-30T04:44:04;6.17;;;2.80;;
81841;SDS011;71284;50.918;7.092;2023-07-30T04:46:30;9.73;;;3.10;;
81841;SDS011;71284;50.918;7.092;2023-07-30T04:48:57;5.93;;;2.73;;
81841;SDS011;71284;50.918;7.092;2023-07-30T04:51:24;8.53;;;3.03;;
81841;SDS011;71284;50.918;7.092;2023-07-30T04:53:50;16.63;;;3.00;;
81841;SDS011;71284;50.918;7.092;2023-07-30T04:56:17;3.53;;;2.83;;
81841;SDS011;71284;50.918;7.092;2023-07-30T04:58:43;8.90;;;3.30;;
81841;SDS011;71284;50.918;7.092;2023-07-30T05:01:10;12.23;;;3.50;;
81841;SDS011;71284;50.918;7.092;2023-07-30T05:03:37;5.17;;;3.53;;
81841;SDS011;71284;50.918;7.092;2023-07-30T05:06:04;9.73;;;3.00;;
81841;SDS011;71284;50.918;7.092;2023-07-30T05:08:31;13.60;;;3.27;;
81841;SDS011;71284;50.918;7.092;2023-07-30T05:10:57;8.30;;;2.20;;
81841;SDS011;71284;50.918;7.092;2023-07-30T05:13:24;3.53;;;2.50;;
81841;SDS011;71284;50.918;7.092;2023-07-30T05:15:50;11.20;;;2.20;;
81841;SDS011;71284;50.918;7.092;2023-07-30T05:18:17;5.20;;;2.77;;
81841;SDS011;71284;50.918;7.092;2023-07-30T05:20:45;6.90;;;1.97;;
81841;SDS011;71284;50.918;7.092;2023-07-30T05:23:10;10.23;;;2.37;;
81841;SDS011;71284;50.918;7.092;2023-07-30T05:25:37;7.67;;;2.60;;
81841;SDS011;71284;50.918;7.092;2023-07-30T05:28:03;5.53;;;2.37;;
81841;SDS011;71284;50.918;7.092;2023-07-30T05:30:30;8.00;;;2.47;;
81841;SDS011;71284;50.918;7.092;2023-07-30T05:32:56;9.43;;;2.40;;
81841;SDS011;71284;50.918;7.092;2023-07-30T05:35:23;5.77;;;2.13;;
81841;SDS011;71284;50.918;7.092;2023-07-30T05:37:50;4.73;;;1.80;;
81841;SDS011;71284;50.918;7.092;2023-07-30T05:40:16;12.30;;;2.47;;
81841;SDS011;71284;50.918;7.092;2023-07-30T05:42:43;4.43;;;2.00;;
81841;SDS011;71284;50.918;7.092;2023-07-30T05:45:10;8.60;;;2.00;;
81841;SDS011;71284;50.918;7.092;2023-07-30T05:47:36;5.23;;;2.27;;
81841;SDS011;71284;50.918;7.092;2023-07-30T05:50:03;8.93;;;1.67;;
81841;SDS011;71284;50.918;7.092;2023-07-30T05:52:29;5.97;;;1.47;;
81841;SDS011;71284;50.918;7.092;2023-07-30T05:54:56;14.37;;;2.40;;
81841;SDS011;71284;50.918;7.092;2023-07-30T05:57:23;7.37;;;2.27;;
81841;SDS011;71284;50.918;7.092;2023-07-30T05:59:49;5.60;;;1.80;;
81841;SDS011;71284;50.918;7.092;2023-07-30T06:02:16;9.63;;;2.13;;
81841;SDS011;71284;50.918;7.092;2023-07-30T06:04:42;9.23;;;2.07;;
81841;SDS011;71284;50.918;7.092;2023-07-30T06:07:09;2.70;;;2.00;;
81841;SDS011;71284;50.918;7.092;2023-07-30T06:09:36;2.60;;;2.10;;
81841;SDS011;71284;50.918;7.092;2023-07-30T06:12:02;10.30;;;2.27;;
81841;SDS011;71284;50.918;7.092;2023-07-30T06:14:29;13.37;;;2.03;;
81841;SDS011;71284;50.918;7.092;2023-07-30T06:16:55;3.17;;;1.90;;
81841;SDS011;71284;50.918;7.092;2023-07-30T06:19:22;10.13;;;2.30;;
81841;SDS011;71284;50.918;7.092;2023-07-30T06:21:49;6.93;;;1.50;;
81841;SDS011;71284;50.918;7.092;2023-07-30T06:24:15;11.33;;;2.63;;
81841;SDS011;71284;50.918;7.092;2023-07-30T06:26:42;3.17;;;1.50;;
81841;SDS011;71284;50.918;7.092;2023-07-30T06:29:08;6.03;;;1.80;;
81841;SDS011;71284;50.918;7.092;2023-07-30T06:31:35;5.03;;;1.87;;
81841;SDS011;71284;50.918;7.092;2023-07-30T06:34:02;5.53;;;2.13;;
81841;SDS011;71284;50.918;7.092;2023-07-30T06:36:28;9.10;;;3.10;;
81841;SDS011;71284;50.918;7.092;2023-07-30T06:38:55;3.47;;;1.93;;
81841;SDS011;71284;50.918;7.092;2023-07-30T06:41:21;8.43;;;2.10;;
81841;SDS011;71284;50.918;7.092;2023-07-30T06:43:48;9.73;;;2.40;;
81841;SDS011;71284;50.918;7.092;2023-07-30T06:46:14;8.30;;;2.80;;
81841;SDS011;71284;50.918;7.092;2023-07-30T06:48:41;4.73;;;2.20;;
81841;SDS011;71284;50.918;7.092;2023-07-30T06:51:09;3.80;;;1.87;;
81841;SDS011;71284;50.918;7.092;2023-07-30T06:53:34;12.43;;;2.37;;
81841;SDS011;71284;50.918;7.092;2023-07-30T06:56:01;4.23;;;1.70;;
81841;SDS011;71284;50.918;7.092;2023-07-30T06:58:27;7.23;;;2.33;;
81841;SDS011;71284;50.918;7.092;2023-07-30T07:00:54;6.03;;;1.77;;
81841;SDS011;71284;50.918;7.092;2023-07-30T07:03:21;3.03;;;1.93;;
81841;SDS011;71284;50.918;7.092;2023-07-30T07:05:54;7.70;;;2.30;;
81841;SDS011;71284;50.918;7.092;2023-07-30T07:08:20;8.13;;;1.20;;
81841;SDS011;71284;50.918;7.092;2023-07-30T07:10:46;9.77;;;2.53;;
81841;SDS011;71284;50.918;7.092;2023-07-30T07:13:13;1.97;;;1.30;;
81841;SDS011;71284;50.918;7.092;2023-07-30T07:15:42;4.30;;;1.50;;
81841;SDS011;71284;50.918;7.092;2023-07-30T07:18:08;5.43;;;1.40;;
81841;SDS011;71284;50.918;7.092;2023-07-30T07:20:34;2.07;;;1.60;;
81841;SDS011;71284;50.918;7.092;2023-07-30T07:23:01;12.30;;;1.83;;
81841;SDS011;71284;50.918;7.092;2023-07-30T07:25:28;6.30;;;1.40;;
81841;SDS011;71284;50.918;7.092;2023-07-30T07:27:54;15.43;;;2.00;;
81841;SDS011;71284;50.918;7.092;2023-07-30T07:30:21;8.63;;;1.50;;
81841;SDS011;71284;50.918;7.092;2023-07-30T07:32:47;8.77;;;2.37;;
81841;SDS011;71284;50.918;7.092;2023-07-30T07:35:16;9.10;;;1.47;;
81841;SDS011;71284;50.918;7.092;2023-07-30T07:37:42;8.80;;;2.20;;
81841;SDS011;71284;50.918;7.092;2023-07-30T07:40:09;11.00;;;1.67;;
81841;SDS011;71284;50.918;7.092;2023-07-30T07:42:37;9.37;;;3.13;;
81841;SDS011;71284;50.918;7.092;2023-07-30T07:45:02;4.17;;;1.77;;
81841;SDS011;71284;50.918;7.092;2023-07-30T07:47:29;6.03;;;1.60;;
81841;SDS011;71284;50.918;7.092;2023-07-30T07:49:56;6.80;;;1.37;;
81841;SDS011;71284;50.918;7.092;2023-07-30T07:52:22;3.43;;;2.00;;
81841;SDS011;71284;50.918;7.092;2023-07-30T07:54:49;9.83;;;1.50;;
81841;SDS011;71284;50.918;7.092;2023-07-30T07:57:16;4.20;;;1.57;;
81841;SDS011;71284;50.918;7.092;2023-07-30T07:59:42;6.60;;;1.63;;
81841;SDS011;71284;50.918;7.092;2023-07-30T08:02:09;11.90;;;2.37;;
81841;SDS011;71284;50.918;7.092;2023-07-30T08:04:35;10.10;;;2.10;;
81841;SDS011;71284;50.918;7.092;2023-07-30T08:07:02;6.60;;;1.87;;
81841;SDS011;71284;50.918;7.092;2023-07-30T08:09:29;7.10;;;1.73;;
81841;SDS011;71284;50.918;7.092;2023-07-30T08:11:56;6.47;;;1.80;;
81841;SDS011;71284;50.918;7.092;2023-07-30T08:14:22;18.50;;;2.23;;
81841;SDS011;71284;50.918;7.092;2023-07-30T08:16:49;10.83;;;1.90;;
81841;SDS011;71284;50.918;7.092;2023-07-30T08:19:16;10.23;;;2.00;;
81841;SDS011;71284;50.918;7.092;2023-07-30T08:21:42;7.23;;;3.50;;
81841;SDS011;71284;50.918;7.092;2023-07-30T08:24:09;10.53;;;2.27;;
81841;SDS011;71284;50.918;7.092;2023-07-30T08:26:35;8.73;;;2.03;;
81841;SDS011;71284;50.918;7.092;2023-07-30T08:29:02;8.80;;;1.70;;
81841;SDS011;71284;50.918;7.092;2023-07-30T08:31:28;8.33;;;2.17;;
81841;SDS011;71284;50.918;7.092;2023-07-30T08:33:55;11.63;;;1.50;;
81841;SDS011;71284;50.918;7.092;2023-07-30T08:36:22;11.50;;;1.90;;
81841;SDS011;71284;50.918;7.092;2023-07-30T08:38:48;7.80;;;1.60;;
81841;SDS011;71284;50.918;7.092;2023-07-30T08:41:15;12.47;;;2.10;;
81841;SDS011;71284;50.918;7.092;2023-07-30T08:43:41;4.93;;;1.90;;
81841;SDS011;71284;50.918;7.092;2023-07-30T08:46:08;16.40;;;3.30;;
81841;SDS011;71284;50.918;7.092;2023-07-30T08:48:35;7.73;;;2.03;;
81841;SDS011;71284;50.918;7.092;2023-07-30T08:51:01;10.93;;;2.60;;
81841;SDS011;71284;50.918;7.092;2023-07-30T08:53:28;9.63;;;2.97;;
81841;SDS011;71284;50.918;7.092;2023-07-30T08:55:54;11.20;;;3.13;;
81841;SDS011;71284;50.918;7.092;2023-07-30T08:58:22;15.13;;;2.57;;
81841;SDS011;71284;50.918;7.092;2023-07-30T09:00:48;12.10;;;2.87;;
81841;SDS011;71284;50.918;7.092;2023-07-30T09:03:14;10.03;;;2.80;;
81841;SDS011;71284;50.918;7.092;2023-07-30T09:05:41;7.83;;;2.40;;
81841;SDS011;71284;50.918;7.092;2023-07-30T09:08:07;13.60;;;3.33;;
81841;SDS011;71284;50.918;7.092;2023-07-30T09:10:34;10.23;;;2.30;;
81841;SDS011;71284;50.918;7.092;2023-07-30T09:13:03;17.53;;;2.90;;
81841;SDS011;71284;50.918;7.092;2023-07-30T09:15:30;14.50;;;2.30;;
81841;SDS011;71284;50.918;7.092;2023-07-30T09:17:58;14.53;;;2.20;;
81841;SDS011;71284;50.918;7.092;2023-07-30T09:20:24;10.37;;;2.00;;
81841;SDS011;71284;50.918;7.092;2023-07-30T09:22:50;16.00;;;2.70;;
81841;SDS011;71284;50.918;7.092;2023-07-30T09:25:18;13.83;;;2.57;;
81841;SDS011;71284;50.918;7.092;2023-07-30T09:27:47;5.80;;;1.83;;
81841;SDS011;71284;50.918;7.092;2023-07-30T09:30:11;12.43;;;2.57;;
81841;SDS011;71284;50.918;7.092;2023-07-30T09:32:38;11.30;;;2.20;;
81841;SDS011;71284;50.918;7.092;2023-07-30T09:35:05;8.13;;;1.60;;
81841;SDS011;71284;50.918;7.092;2023-07-30T09:37:33;9.13;;;2.23;;
81841;SDS011;71284;50.918;7.092;2023-07-30T09:39:59;9.53;;;2.20;;
81841;SDS011;71284;50.918;7.092;2023-07-30T09:42:27;6.43;;;2.10;;
81841;SDS011;71284;50.918;7.092;2023-07-30T09:44:53;13.80;;;1.93;;
81841;SDS011;71284;50.918;7.092;2023-07-30T09:47:19;8.17;;;1.73;;
81841;SDS011;71284;50.918;7.092;2023-07-30T09:49:46;3.80;;;1.40;;
81841;SDS011;71284;50.918;7.092;2023-07-30T09:52:12;8.00;;;1.90;;
81841;SDS011;71284;50.918;7.092;2023-07-30T09:54:39;9.93;;;2.20;;
81841;SDS011;71284;50.918;7.092;2023-07-30T09:57:06;5.30;;;1.77;;
81841;SDS011;71284;50.918;7.092;2023-07-30T09:59:32;7.50;;;2.30;;
81841;SDS011;71284;50.918;7.092;2023-07-30T10:01:59;10.27;;;2.43;;
81841;SDS011;71284;50.918;7.092;2023-07-30T10:04:25;9.00;;;1.90;;
81841;SDS011;71284;50.918;7.092;2023-07-30T10:09:35;5.20;;;1.57;;
81841;SDS011;71284;50.918;7.092;2023-07-30T10:12:01;9.03;;;2.27;;
81841;SDS011;71284;50.918;7.092;2023-07-30T10:14:27;5.53;;;1.90;;
81841;SDS011;71284;50.918;7.092;2023-07-30T10:16:55;6.93;;;1.67;;
81841;SDS011;71284;50.918;7.092;2023-07-30T10:19:22;11.10;;;1.60;;
81841;SDS011;71284;50.918;7.092;2023-07-30T10:21:48;9.93;;;1.77;;
81841;SDS011;71284;50.918;7.092;2023-07-30T10:24:15;4.97;;;1.20;;
81841;SDS011;71284;50.918;7.092;2023-07-30T10:26:41;11.43;;;2.17;;
81841;SDS011;71284;50.918;7.092;2023-07-30T10:29:11;13.30;;;1.70;;
81841;SDS011;71284;50.918;7.092;2023-07-30T10:31:38;4.30;;;1.50;;
81841;SDS011;71284;50.918;7.092;2023-07-30T10:34:06;5.07;;;3.07;;
81841;SDS011;71284;50.918;7.092;2023-07-30T10:36:32;8.30;;;1.90;;
81841;SDS011;71284;50.918;7.092;2023-07-30T10:38:57;10.93;;;2.37;;
81841;SDS011;71284;50.918;7.092;2023-07-30T10:41:24;9.70;;;2.00;;
81841;SDS011;71284;50.918;7.092;2023-07-30T10:43:50;7.30;;;2.47;;
81841;SDS011;71284;50.918;7.092;2023-07-30T10:46:18;4.23;;;1.73;;
81841;SDS011;71284;50.918;7.092;2023-07-30T10:48:44;4.30;;;2.03;;
81841;SDS011;71284;50.918;7.092;2023-07-30T10:51:12;12.50;;;1.60;;
81841;SDS011;71284;50.918;7.092;2023-07-30T10:53:38;7.50;;;2.00;;
81841;SDS011;71284;50.918;7.092;2023-07-30T10:56:06;4.67;;;1.80;;
81841;SDS011;71284;50.918;7.092;2023-07-30T10:58:34;9.37;;;1.93;;
81841;SDS011;71284;50.918;7.092;2023-07-30T11:01:02;7.13;;;1.50;;
81841;SDS011;71284;50.918;7.092;2023-07-30T11:03:28;10.13;;;1.70;;
81841;SDS011;71284;50.918;7.092;2023-07-30T11:05:55;5.73;;;1.73;;
81841;SDS011;71284;50.918;7.092;2023-07-30T11:08:38;5.83;;;1.60;;
81841;SDS011;71284;50.918;7.092;2023-07-30T11:11:04;3.90;;;1.50;;
81841;SDS011;71284;50.918;7.092;2023-07-30T11:13:34;4.43;;;1.53;;
81841;SDS011;71284;50.918;7.092;2023-07-30T11:15:56;2.33;;;1.10;;
81841;SDS011;71284;50.918;7.092;2023-07-30T11:18:23;3.40;;;1.50;;
81841;SDS011;71284;50.918;7.092;2023-07-30T11:20:49;5.23;;;1.30;;
81841;SDS011;71284;50.918;7.092;2023-07-30T11:23:19;10.17;;;2.43;;
81841;SDS011;71284;50.918;7.092;2023-07-30T11:25:46;4.47;;;1.13;;
81841;SDS011;71284;50.918;7.092;2023-07-30T11:28:12;4.73;;;1.77;;
81841;SDS011;71284;50.918;7.092;2023-07-30T11:30:38;2.77;;;1.20;;
81841;SDS011;71284;50.918;7.092;2023-07-30T11:33:05;5.30;;;1.80;;
81841;SDS011;71284;50.918;7.092;2023-07-30T11:35:31;5.47;;;1.57;;
81841;SDS011;71284;50.918;7.092;2023-07-30T11:37:58;4.80;;;1.63;;
81841;SDS011;71284;50.918;7.092;2023-07-30T11:40:25;6.83;;;1.20;;
81841;SDS011;71284;50.918;7.092;2023-07-30T11:42:51;4.87;;;1.77;;
81841;SDS011;71284;50.918;7.092;2023-07-30T11:45:19;4.50;;;1.50;;
81841;SDS011;71284;50.918;7.092;2023-07-30T11:47:47;8.73;;;1.57;;
81841;SDS011;71284;50.918;7.092;2023-07-30T11:50:13;9.60;;;1.40;;
81841;SDS011;71284;50.918;7.092;2023-07-30T11:55:18;1.10;;;1.00;;
81841;SDS011;71284;50.918;7.092;2023-07-30T11:57:45;8.10;;;1.10;;
81841;SDS011;71284;50.918;7.092;2023-07-30T12:00:11;5.37;;;0.97;;
81841;SDS011;71284;50.918;7.092;2023-07-30T12:02:38;7.00;;;0.97;;
81841;SDS011;71284;50.918;7.092;2023-07-30T12:05:05;8.43;;;1.67;;
81841;SDS011;71284;50.918;7.092;2023-07-30T12:07:32;6.33;;;0.80;;
81841;SDS011;71284;50.918;7.092;2023-07-30T12:12:32;6.27;;;0.90;;
81841;SDS011;71284;50.918;7.092;2023-07-30T12:14:59;2.70;;;2.00;;
81841;SDS011;71284;50.918;7.092;2023-07-30T12:17:25;2.90;;;1.00;;
81841;SDS011;71284;50.918;7.092;2023-07-30T12:19:52;7.73;;;1.40;;
81841;SDS011;71284;50.918;7.092;2023-07-30T12:22:18;5.13;;;1.33;;
81841;SDS011;71284;50.918;7.092;2023-07-30T12:24:45;3.53;;;1.00;;
81841;SDS011;71284;50.918;7.092;2023-07-30T12:27:12;3.47;;;1.20;;
81841;SDS011;71284;50.918;7.092;2023-07-30T12:29:38;12.03;;;1.53;;
81841;SDS011;71284;50.918;7.092;2023-07-30T12:32:05;5.70;;;1.37;;
81841;SDS011;71284;50.918;7.092;2023-07-30T12:34:32;4.80;;;1.80;;
81841;SDS011;71284;50.918;7.092;2023-07-30T12:36:58;7.70;;;1.43;;
81841;SDS011;71284;50.918;7.092;2023-07-30T12:39:25;2.53;;;1.30;;
81841;SDS011;71284;50.918;7.092;2023-07-30T12:41:51;6.10;;;1.40;;
81841;SDS011;71284;50.918;7.092;2023-07-30T12:44:18;12.53;;;1.60;;
81841;SDS011;71284;50.918;7.092;2023-07-30T12:46:45;3.50;;;1.20;;
81841;SDS011;71284;50.918;7.092;2023-07-30T12:49:11;6.73;;;1.97;;
81841;SDS011;71284;50.918;7.092;2023-07-30T12:51:38;6.03;;;1.33;;
81841;SDS011;71284;50.918;7.092;2023-07-30T12:54:05;12.10;;;2.10;;
81841;SDS011;71284;50.918;7.092;2023-07-30T12:56:32;5.53;;;1.60;;
81841;SDS011;71284;50.918;7.092;2023-07-30T12:58:58;7.13;;;2.00;;
81841;SDS011;71284;50.918;7.092;2023-07-30T13:01:25;7.87;;;2.43;;
81841;SDS011;71284;50.918;7.092;2023-07-30T13:03:52;7.60;;;1.47;;
81841;SDS011;71284;50.918;7.092;2023-07-30T13:06:19;6.90;;;1.73;;
81841;SDS011;71284;50.918;7.092;2023-07-30T13:08:45;5.60;;;2.00;;
81841;SDS011;71284;50.918;7.092;2023-07-30T13:11:11;11.73;;;1.73;;
81841;SDS011;71284;50.918;7.092;2023-07-30T13:13:38;5.03;;;1.63;;
81841;SDS011;71284;50.918;7.092;2023-07-30T13:16:04;2.97;;;1.70;;
81841;SDS011;71284;50.918;7.092;2023-07-30T13:18:31;5.53;;;1.50;;
81841;SDS011;71284;50.918;7.092;2023-07-30T13:20:58;14.00;;;3.20;;
81841;SDS011;71284;50.918;7.092;2023-07-30T13:23:24;20.77;;;2.23;;
81841;SDS011;71284;50.918;7.092;2023-07-30T13:25:51;9.60;;;2.20;;
81841;SDS011;71284;50.918;7.092;2023-07-30T13:28:17;5.17;;;1.40;;
81841;SDS011;71284;50.918;7.092;2023-07-30T13:30:44;2.93;;;1.23;;
81841;SDS011;71284;50.918;7.092;2023-07-30T13:33:11;4.67;;;1.47;;
81841;SDS011;71284;50.918;7.092;2023-07-30T13:35:37;5.23;;;1.53;;
81841;SDS011;71284;50.918;7.092;2023-07-30T13:38:04;7.80;;;1.27;;
81841;SDS011;71284;50.918;7.092;2023-07-30T13:40:30;2.77;;;1.10;;
81841;SDS011;71284;50.918;7.092;2023-07-30T13:42:57;6.33;;;1.90;;
81841;SDS011;71284;50.918;7.092;2023-07-30T13:45:24;5.07;;;1.47;;
81841;SDS011;71284;50.918;7.092;2023-07-30T13:47:50;7.93;;;1.97;;
81841;SDS011;71284;50.918;7.092;2023-07-30T13:50:17;2.30;;;1.10;;
81841;SDS011;71284;50.918;7.092;2023-07-30T13:52:44;6.20;;;1.43;;
81841;SDS011;71284;50.918;7.092;2023-07-30T13:55:10;2.17;;;1.13;;
81841;SDS011;71284;50.918;7.092;2023-07-30T13:57:37;4.77;;;1.50;;
81841;SDS011;71284;50.918;7.092;2023-07-30T14:00:04;2.13;;;1.03;;
81841;SDS011;71284;50.918;7.092;2023-07-30T14:02:31;4.50;;;0.97;;
81841;SDS011;71284;50.918;7.092;2023-07-30T14:04:58;4.03;;;1.63;;
81841;SDS011;71284;50.918;7.092;2023-07-30T14:07:25;2.50;;;0.83;;
81841;SDS011;71284;50.918;7.092;2023-07-30T14:09:51;14.23;;;1.50;;
81841;SDS011;71284;50.918;7.092;2023-07-30T14:12:18;9.03;;;1.60;;
81841;SDS011;71284;50.918;7.092;2023-07-30T14:14:44;2.17;;;0.80;;
81841;SDS011;71284;50.918;7.092;2023-07-30T14:17:11;6.60;;;1.00;;
81841;SDS011;71284;50.918;7.092;2023-07-30T14:19:37;1.30;;;0.93;;
81841;SDS011;71284;50.918;7.092;2023-07-30T14:22:04;4.60;;;1.47;;
81841;SDS011;71284;50.918;7.092;2023-07-30T14:24:31;4.60;;;1.37;;
81841;SDS011;71284;50.918;7.092;2023-07-30T14:26:58;7.50;;;1.20;;
81841;SDS011;71284;50.918;7.092;2023-07-30T14:29:24;4.80;;;1.10;;
81841;SDS011;71284;50.918;7.092;2023-07-30T14:31:51;5.30;;;1.23;;
81841;SDS011;71284;50.918;7.092;2023-07-30T14:34:18;4.37;;;1.40;;
81841;SDS011;71284;50.918;7.092;2023-07-30T14:36:44;7.13;;;1.20;;
81841;SDS011;71284;50.918;7.092;2023-07-30T14:39:11;2.37;;;1.30;;
81841;SDS011;71284;50.918;7.092;2023-07-30T14:41:38;3.83;;;1.40;;
81841;SDS011;71284;50.918;7.092;2023-07-30T14:44:04;5.00;;;1.23;;
81841;SDS011;71284;50.918;7.092;2023-07-30T14:46:30;9.63;;;1.70;;
81841;SDS011;71284;50.918;7.092;2023-07-30T14:48:57;4.53;;;1.20;;